Donnelly, Idaho
Current Conditions -  °F | °C
As of 5:51 AM on Thursday 30 Oct 2014 (Local Time) from KMYL Reporting Station
Clear Clear  
Wind Chill: 36°   Ceiling: Unl
Heat Index: 36°   Visibility: 10mi
Dew Point: 35°   Wind: 0mph
Humidity: 97%   Direction: NA
Pressure: 30.19"   Gusts: NA
Location:  44.73°N, 116.08°W
Report Text: KMYL 301151Z AUTO 00000KT 10SM CLR 02/02 A3019 RMK AO2 SLP225 60000 T00220017 10044 20022 58009
Loading
Personal Weather Stations






























Interactive Weather Map
Tropical Storm Tracking
New forecast layout! Learn more

10-Day Weather Forecast

Advertisements
Track Severe Weather on mobile